Time;durP1;ratioP1;P1;durP2;ratioP2;P2;SDS_P1;SDS_P2;PMS_P1;PMS_P2;Temp;Humidity;BMP_temperature;BMP_pressure;BME280_temperature;BME280_humidity;BME280_pressure;Samples;Min_cycle;Max_cycle;Signal;HPM_P1;HPM_P2
2022/01/05 00:00:45;;;;;;;51.33;46.53;;;;;;;1.91;91.02;99493.09;4944855;29;20016;-86
2022/01/05 00:03:11;;;;;;;50.60;46.03;;;;;;;1.89;90.88;99489.69;4938752;29;20019;-86
2022/01/05 00:05:36;;;;;;;50.60;46.03;;;;;;;1.93;90.60;99482.91;4931839;29;20027;-85
2022/01/05 00:08:02;;;;;;;51.73;46.97;;;;;;;1.72;90.90;99478.94;4930200;29;20035;-85
2022/01/05 00:10:27;;;;;;;51.03;46.37;;;;;;;1.90;90.78;99478.72;4930192;29;20023;-85
2022/01/05 00:12:53;;;;;;;53.20;48.17;;;;;;;1.76;91.06;99465.38;4931180;29;20083;-86
2022/01/05 00:15:19;;;;;;;50.95;46.25;;;;;;;1.72;90.78;99479.81;4935956;29;20055;-86
2022/01/05 00:17:44;;;;;;;51.87;46.93;;;;;;;1.48;91.42;99449.66;4934845;29;20038;-86
2022/01/05 00:20:10;;;;;;;51.97;46.23;;;;;;;1.61;91.64;99462.19;4932353;29;20410;-86
2022/01/05 00:22:36;;;;;;;50.95;45.83;;;;;;;1.61;91.19;99457.09;4931032;29;20027;-86
2022/01/05 00:25:01;;;;;;;52.13;46.77;;;;;;;1.63;91.68;99470.59;4930920;29;20027;-86
2022/01/05 00:27:26;;;;;;;51.73;46.40;;;;;;;1.67;91.68;99462.97;4931125;29;20038;-86
2022/01/05 00:29:52;;;;;;;52.27;46.90;;;;;;;1.75;91.24;99443.41;4930678;29;20024;-87
2022/01/05 00:32:17;;;;;;;50.40;45.83;;;;;;;1.61;91.22;99452.03;4929753;29;20086;-86
2022/01/05 00:34:42;;;;;;;49.23;45.17;;;;;;;1.57;91.20;99455.47;4929172;29;20110;-87
2022/01/05 00:37:08;;;;;;;52.30;47.03;;;;;;;1.52;91.96;99452.16;4928889;29;20058;-87
2022/01/05 00:39:33;;;;;;;50.70;46.40;;;;;;;1.61;91.32;99446.16;4928410;29;20023;-86
2022/01/05 00:41:58;;;;;;;50.63;46.03;;;;;;;1.53;91.18;99428.50;4938859;29;20045;-85
2022/01/05 00:44:24;;;;;;;51.47;46.63;;;;;;;1.68;90.87;99426.63;4947569;28;20049;-86
2022/01/05 00:46:50;;;;;;;50.43;45.87;;;;;;;1.77;90.27;99436.63;4943394;29;20023;-86
2022/01/05 00:49:16;;;;;;;51.72;46.47;;;;;;;1.59;91.06;99450.38;4933031;29;20451;-86
2022/01/05 00:51:42;;;;;;;50.55;45.90;;;;;;;1.68;90.95;99445.19;4932897;29;20027;-86
2022/01/05 00:54:07;;;;;;;51.13;46.10;;;;;;;1.77;90.05;99449.31;4939737;29;20093;-85
2022/01/05 00:56:32;;;;;;;51.33;46.43;;;;;;;1.56;90.50;99433.53;4947710;28;20280;-86
2022/01/05 00:58:58;;;;;;;50.13;45.73;;;;;;;1.46;90.95;99447.16;4944881;29;20031;-85
2022/01/05 01:01:23;;;;;;;50.87;45.93;;;;;;;1.67;90.77;99455.34;4944714;29;20024;-86
2022/01/05 01:03:48;;;;;;;49.53;45.33;;;;;;;1.71;90.52;99457.00;4945019;29;20039;-85
2022/01/05 01:06:14;;;;;;;48.97;44.87;;;;;;;1.50;90.42;99458.94;4944944;29;20008;-86
2022/01/05 01:08:40;;;;;;;49.55;45.30;;;;;;;1.55;91.15;99444.50;4944733;29;20016;-86
2022/01/05 01:11:05;;;;;;;49.60;45.17;;;;;;;1.53;90.94;99438.63;4944607;29;20043;-86
2022/01/05 01:13:31;;;;;;;49.83;45.57;;;;;;;1.68;90.95;99447.72;4944289;29;20079;-85
2022/01/05 01:15:57;;;;;;;49.42;45.35;;;;;;;1.36;91.00;99407.59;4943809;29;20046;-86
2022/01/05 01:18:22;;;;;;;49.93;45.67;;;;;;;1.50;91.37;99433.59;4944073;29;20020;-85
2022/01/05 01:20:48;;;;;;;50.93;46.00;;;;;;;1.45;91.57;99428.59;4944789;29;20027;-86
2022/01/05 01:23:13;;;;;;;50.57;46.23;;;;;;;1.37;91.68;99432.91;4944567;29;20016;-86
2022/01/05 01:25:39;;;;;;;51.85;46.97;;;;;;;1.51;91.46;99426.81;4943564;29;20007;-86
2022/01/05 01:28:05;;;;;;;49.60;45.17;;;;;;;1.54;91.38;99439.47;4945405;29;20034;-86
2022/01/05 01:30:31;;;;;;;50.13;45.80;;;;;;;1.52;91.44;99446.25;4943566;29;20160;-86
2022/01/05 01:32:57;;;;;;;51.20;46.42;;;;;;;1.43;91.89;99431.97;4943818;29;20034;-85
2022/01/05 01:35:23;;;;;;;50.55;45.90;;;;;;;1.34;92.31;99432.13;4943046;29;20034;-86
2022/01/05 01:37:48;;;;;;;50.93;46.37;;;;;;;1.41;92.09;99421.03;4938391;29;20027;-86
2022/01/05 01:40:14;;;;;;;49.33;45.33;;;;;;;1.40;92.03;99426.94;4939053;29;20079;-86
2022/01/05 01:42:39;;;;;;;52.30;46.93;;;;;;;1.31;91.89;99402.56;4935991;29;20034;-87
2022/01/05 01:45:05;;;;;;;51.07;46.30;;;;;;;1.43;92.24;99437.06;4938881;29;20031;-86
2022/01/05 01:47:30;;;;;;;51.50;46.53;;;;;;;1.38;92.09;99416.00;4944308;29;20031;-85
2022/01/05 01:49:55;;;;;;;49.53;45.27;;;;;;;1.53;91.88;99433.56;4939650;29;20284;-85
2022/01/05 01:52:21;;;;;;;52.00;46.50;;;;;;;1.32;92.24;99416.06;4931931;29;20035;-85
2022/01/05 01:54:47;;;;;;;50.60;45.80;;;;;;;1.50;92.13;99420.94;4930356;29;20035;-86
2022/01/05 01:57:12;;;;;;;51.08;45.95;;;;;;;1.49;92.17;99421.78;4929767;29;20027;-85
2022/01/05 01:59:38;;;;;;;50.63;45.63;;;;;;;1.49;91.74;99398.13;4933591;29;20038;-85
2022/01/05 02:02:04;;;;;;;50.97;46.23;;;;;;;1.34;92.56;99406.78;4937689;29;20099;-85
2022/01/05 02:04:29;;;;;;;51.95;47.10;;;;;;;1.44;91.89;99409.16;4932020;29;20019;-85
2022/01/05 02:06:54;;;;;;;51.67;46.73;;;;;;;1.45;91.99;99390.56;4935318;29;20031;-85
2022/01/05 02:09:20;;;;;;;52.90;47.37;;;;;;;1.45;91.97;99410.00;4932286;29;20521;-86
2022/01/05 02:11:45;;;;;;;51.10;46.60;;;;;;;1.19;92.51;99385.81;4915328;29;20064;-86
2022/01/05 02:14:10;;;;;;;51.00;46.37;;;;;;;1.40;92.40;99406.69;4916673;29;20024;-87
2022/01/05 02:16:41;;;;;;;50.77;45.97;;;;;;;1.34;91.98;99402.53;4930790;29;20028;-86
2022/01/05 02:19:06;;;;;;;53.38;47.38;;;;;;;1.42;91.99;99421.03;4931075;29;20042;-86
2022/01/05 02:21:34;;;;;;;50.77;46.23;;;;;;;1.35;92.06;99409.31;4931206;29;20027;-86
2022/01/05 02:24:00;;;;;;;52.08;46.88;;;;;;;1.10;92.77;99393.53;4934598;29;20034;-86
2022/01/05 02:26:26;;;;;;;52.78;47.20;;;;;;;1.20;93.04;99410.28;4934091;29;20431;-85
2022/01/05 02:28:51;;;;;;;52.00;46.75;;;;;;;1.35;92.29;99403.38;4930395;29;20032;-85
2022/01/05 02:31:17;;;;;;;51.17;46.27;;;;;;;1.25;92.14;99398.41;4929954;29;20028;-85
2022/01/05 02:33:42;;;;;;;57.07;47.03;;;;;;;1.26;92.37;99399.28;4933271;29;20397;-86
2022/01/05 02:36:09;;;;;;;50.83;45.53;;;;;;;1.21;92.04;99390.88;4933935;29;20035;-86
2022/01/05 02:38:34;;;;;;;65.25;50.70;;;;;;;1.12;92.17;99396.88;4934318;29;20023;-86
2022/01/05 02:41:10;;;;;;;52.90;47.37;;;;;;;1.24;92.08;99391.69;4920956;29;20034;-86
2022/01/05 02:43:36;;;;;;;51.00;46.30;;;;;;;1.27;91.52;99391.66;4942185;29;20062;-86
2022/01/05 02:46:03;;;;;;;51.03;46.20;;;;;;;1.17;91.58;99385.00;4941191;29;20053;-86
2022/01/05 02:48:28;;;;;;;51.28;46.33;;;;;;;1.27;90.83;99399.25;4925687;29;20117;-86
2022/01/05 02:50:57;;;;;;;55.77;48.00;;;;;;;1.35;91.01;99400.84;4941030;29;20008;-85
2022/01/05 02:53:23;;;;;;;51.53;46.72;;;;;;;1.38;90.86;99394.03;4941730;29;20024;-86
2022/01/05 02:55:49;;;;;;;51.42;46.65;;;;;;;1.21;90.79;99406.06;4944405;29;20028;-85
2022/01/05 02:58:14;;;;;;;53.40;47.40;;;;;;;1.34;90.50;99402.53;4947800;29;20027;-86
2022/01/05 03:00:40;;;;;;;52.63;47.13;;;;;;;1.36;90.10;99389.84;4949123;28;20059;-86
2022/01/05 03:03:05;;;;;;;50.17;45.67;;;;;;;1.31;89.97;99396.69;4948130;28;20054;-84
2022/01/05 03:05:30;;;;;;;50.87;45.70;;;;;;;1.26;89.77;99371.41;4948479;29;20016;-87
2022/01/05 03:07:56;;;;;;;51.73;46.60;;;;;;;1.30;89.89;99400.88;4943852;29;20027;-85
2022/01/05 03:10:21;;;;;;;50.63;45.90;;;;;;;1.32;89.67;99395.81;4943063;29;20253;-86
2022/01/05 03:12:46;;;;;;;53.37;47.47;;;;;;;1.24;88.60;99366.34;4937667;29;20106;-87
2022/01/05 03:15:12;;;;;;;50.93;45.90;;;;;;;1.20;89.27;99369.78;4940170;29;20030;-87
2022/01/05 03:17:39;;;;;;;52.00;46.73;;;;;;;1.35;89.24;99375.50;4943914;29;20031;-87
2022/01/05 03:20:05;;;;;;;51.95;46.65;;;;;;;1.30;88.89;99359.53;4944046;29;20023;-87
2022/01/05 03:22:31;;;;;;;50.20;45.53;;;;;;;1.34;88.49;99368.78;4943863;29;20043;-87
2022/01/05 03:24:56;;;;;;;51.57;46.67;;;;;;;1.15;88.53;99361.41;4943042;29;20035;-86
2022/01/05 03:27:21;;;;;;;49.97;45.30;;;;;;;1.25;88.56;99347.75;4943652;29;20030;-86
2022/01/05 03:29:47;;;;;;;49.57;45.20;;;;;;;1.32;88.01;99355.28;4939759;29;20048;-85
2022/01/05 03:32:12;;;;;;;51.13;46.17;;;;;;;1.39;87.88;99352.63;4940896;29;20040;-85
2022/01/05 03:34:38;;;;;;;52.93;47.33;;;;;;;1.45;87.15;99354.28;4941445;29;20284;-86
2022/01/05 03:37:04;;;;;;;50.22;45.40;;;;;;;1.43;87.00;99355.97;4943551;29;20052;-86
2022/01/05 03:39:29;;;;;;;50.77;46.10;;;;;;;1.33;87.02;99339.22;4940709;29;20031;-86
2022/01/05 03:41:55;;;;;;;51.13;46.40;;;;;;;1.33;86.63;99334.97;4960869;29;20091;-86
2022/01/05 03:44:20;;;;;;;50.47;45.63;;;;;;;1.24;86.61;99320.75;4944369;29;20026;-86
2022/01/05 03:46:46;;;;;;;50.07;45.77;;;;;;;1.44;87.19;99357.66;4954819;29;20028;-86
2022/01/05 03:49:11;;;;;;;51.70;46.43;;;;;;;1.37;86.53;99350.97;4937405;29;20019;-86
2022/01/05 03:51:36;;;;;;;49.67;45.07;;;;;;;1.37;87.23;99361.09;4937239;29;20027;-87
2022/01/05 03:54:02;;;;;;;51.00;45.97;;;;;;;1.33;86.81;99357.78;4936909;29;20028;-86
2022/01/05 03:56:27;;;;;;;50.83;46.33;;;;;;;1.41;87.37;99360.22;4936580;29;20019;-86
2022/01/05 03:58:52;;;;;;;50.40;45.60;;;;;;;1.30;86.88;99344.31;4943912;29;20300;-86
2022/01/05 04:01:18;;;;;;;50.57;45.80;;;;;;;1.41;87.39;99362.75;4939734;29;20129;-86
2022/01/05 04:03:43;;;;;;;51.20;46.17;;;;;;;1.38;87.66;99358.56;4938139;29;20026;-86
2022/01/05 04:06:08;;;;;;;50.97;45.83;;;;;;;1.38;87.22;99347.59;4936956;29;20050;-87
2022/01/05 04:08:34;;;;;;;50.30;45.67;;;;;;;1.37;87.27;99348.44;4937292;29;20027;-86
2022/01/05 04:10:59;;;;;;;51.07;46.10;;;;;;;1.35;87.45;99350.16;4941406;29;20027;-86
2022/01/05 04:13:25;;;;;;;51.13;46.30;;;;;;;1.34;87.31;99335.84;4939634;29;20027;-86
2022/01/05 04:15:50;;;;;;;50.10;45.77;;;;;;;1.31;87.49;99351.09;4934682;29;20134;-86
2022/01/05 04:18:15;;;;;;;52.77;47.00;;;;;;;1.13;87.53;99322.59;4932943;29;20035;-86
2022/01/05 04:20:41;;;;;;;51.40;46.40;;;;;;;1.17;87.06;99321.69;4949490;29;20027;-85
2022/01/05 04:23:06;;;;;;;51.30;46.10;;;;;;;1.39;87.96;99349.28;4933632;29;20034;-87
2022/01/05 04:25:33;;;;;;;51.20;46.40;;;;;;;1.31;87.86;99351.09;4933101;29;20046;-87
2022/01/05 04:27:58;;;;;;;;;;;;;;;1.40;87.01;99356.00;4931767;29;20023;-86
2022/01/05 04:30:23;;;;;;;50.03;45.72;;;;;;;1.35;86.84;99334.97;4931286;29;19922;-87
2022/01/05 04:32:49;;;;;;;51.03;46.27;;;;;;;1.40;86.81;99350.94;4935644;29;20067;-86
2022/01/05 04:35:14;;;;;;;49.53;45.13;;;;;;;1.40;87.79;99346.72;4937091;29;20058;-86
2022/01/05 04:37:41;;;;;;;51.53;46.50;;;;;;;1.43;87.33;99344.16;4936359;29;20031;-86
2022/01/05 04:40:07;;;;;;;50.90;46.00;;;;;;;1.24;86.87;99330.88;4937918;29;20126;-86
2022/01/05 04:42:33;;;;;;;50.33;45.50;;;;;;;1.48;87.32;99354.22;4943961;29;20062;-87
2022/01/05 04:44:58;;;;;;;51.43;46.53;;;;;;;1.26;87.78;99326.63;4935477;29;20122;-86
2022/01/05 04:47:23;;;;;;;49.70;45.23;;;;;;;1.32;87.84;99347.66;4930560;29;20034;-86
2022/01/05 04:49:49;;;;;;;48.90;44.70;;;;;;;1.39;87.93;99349.28;4930279;29;20046;-86
2022/01/05 04:52:14;;;;;;;49.47;44.93;;;;;;;1.45;87.61;99354.28;4932166;29;20027;-87
2022/01/05 04:54:40;;;;;;;60.63;50.27;;;;;;;1.38;87.29;99333.22;4934354;29;20082;-87
2022/01/05 04:57:06;;;;;;;49.83;45.23;;;;;;;1.50;87.63;99357.56;4947633;29;20099;-87
2022/01/05 04:59:32;;;;;;;52.85;47.42;;;;;;;1.34;87.84;99328.25;4947484;28;20026;-86
2022/01/05 05:01:57;;;;;;;51.25;46.10;;;;;;;1.45;87.30;99350.03;4947909;29;20079;-87
2022/01/05 05:04:22;;;;;;;49.53;45.00;;;;;;;1.54;87.41;99358.34;4947403;28;20072;-86
2022/01/05 05:06:49;;;;;;;50.57;45.83;;;;;;;1.62;87.10;99367.53;4946623;29;20011;-87
2022/01/05 05:09:15;;;;;;;50.08;45.42;;;;;;;1.59;86.48;99362.53;4946288;29;20023;-86
2022/01/05 05:11:40;;;;;;;52.97;46.67;;;;;;;1.38;86.57;99325.63;4937610;29;20030;-86
2022/01/05 05:14:05;;;;;;;50.87;45.57;;;;;;;1.68;85.77;99358.19;4929454;29;20038;-86
2022/01/05 05:16:31;;;;;;;50.73;46.07;;;;;;;1.71;85.70;99368.28;4930428;29;20027;-86
2022/01/05 05:18:56;;;;;;;51.50;46.00;;;;;;;1.73;86.15;99361.47;4930902;29;20042;-86
2022/01/05 05:21:21;;;;;;;50.83;45.77;;;;;;;1.84;85.63;99357.06;4931530;29;20027;-86
2022/01/05 05:23:47;;;;;;;50.37;45.87;;;;;;;1.79;86.10;99348.72;4931179;29;20023;-87
2022/01/05 05:26:12;;;;;;;50.93;46.13;;;;;;;1.73;86.11;99347.09;4931500;29;20034;-87
2022/01/05 05:28:37;;;;;;;59.03;50.90;;;;;;;1.84;85.79;99357.06;4931911;29;20019;-87
2022/01/05 05:31:03;;;;;;;50.53;46.17;;;;;;;1.90;85.42;99341.78;4931851;29;20027;-86
2022/01/05 05:33:28;;;;;;;51.23;46.40;;;;;;;1.79;86.38;99353.78;4936681;29;20023;-87
2022/01/05 05:35:53;;;;;;;51.67;46.27;;;;;;;1.81;86.02;99359.66;4946282;29;20007;-86
2022/01/05 05:38:19;;;;;;;49.90;45.23;;;;;;;1.94;86.11;99362.84;4946493;29;20054;-87
2022/01/05 05:40:45;;;;;;;54.88;47.55;;;;;;;1.85;86.83;99352.88;4940903;29;20030;-86
2022/01/05 05:43:11;;;;;;;53.40;47.67;;;;;;;1.86;86.46;99357.91;4944266;29;20059;-86
2022/01/05 05:45:37;;;;;;;51.20;46.55;;;;;;;1.82;86.99;99348.66;4942439;29;20269;-87
2022/01/05 05:48:02;;;;;;;51.30;46.42;;;;;;;1.70;87.47;99318.41;4934471;29;20023;-87
2022/01/05 05:50:28;;;;;;;52.07;46.77;;;;;;;1.73;87.42;99339.47;4937151;29;20031;-86
2022/01/05 05:52:54;;;;;;;52.03;46.58;;;;;;;1.70;87.51;99347.13;4940588;29;20055;-86
2022/01/05 05:55:19;;;;;;;50.23;45.57;;;;;;;1.80;88.37;99347.88;4940860;29;20502;-86
2022/01/05 05:57:44;;;;;;;51.17;46.33;;;;;;;1.60;88.49;99338.81;4939684;29;20086;-86
2022/01/05 06:00:11;;;;;;;50.97;46.00;;;;;;;1.58;89.29;99348.16;4940240;29;20038;-86
2022/01/05 06:02:36;;;;;;;52.33;46.95;;;;;;;1.67;90.00;99356.50;4940321;29;20027;-87
2022/01/05 06:05:02;;;;;;;52.40;46.97;;;;;;;1.61;89.81;99340.50;4939857;29;20050;-86
2022/01/05 06:07:27;;;;;;;52.42;47.17;;;;;;;1.66;90.16;99352.28;4939588;29;20027;-87
2022/01/05 06:09:53;;;;;;;52.00;46.83;;;;;;;1.69;90.65;99344.66;4940954;29;20012;-87
2022/01/05 06:12:18;;;;;;;51.90;46.77;;;;;;;1.72;90.46;99369.94;4937691;29;20044;-85
2022/01/05 06:14:44;;;;;;;51.47;46.40;;;;;;;1.49;91.65;99335.59;4936022;29;20038;-86
2022/01/05 06:17:09;;;;;;;50.40;45.60;;;;;;;1.48;91.59;99326.34;4933554;29;20032;-87
2022/01/05 06:19:34;;;;;;;52.97;47.33;;;;;;;1.62;90.73;99352.34;4935671;29;20060;-87
2022/01/05 06:21:59;;;;;;;50.73;46.57;;;;;;;1.56;90.72;99332.16;4922000;29;20048;-87
2022/01/05 06:24:25;;;;;;;52.53;47.27;;;;;;;1.68;91.53;99348.03;4941493;29;20043;-86
2022/01/05 06:26:52;;;;;;;52.03;46.90;;;;;;;1.58;91.36;99338.03;4938917;29;20078;-86
2022/01/05 06:29:18;;;;;;;50.92;46.10;;;;;;;1.67;91.41;99354.81;4918065;29;20031;-87
2022/01/05 06:31:43;;;;;;;52.00;47.20;;;;;;;1.67;91.41;99353.94;4916921;29;20057;-87
2022/01/05 06:34:08;;;;;;;52.07;46.83;;;;;;;1.41;90.81;99319.69;4916254;29;20024;-87
2022/01/05 06:36:34;;;;;;;53.57;48.10;;;;;;;1.66;91.02;99347.22;4927815;29;20027;-86
2022/01/05 06:38:59;;;;;;;53.47;48.10;;;;;;;1.72;90.92;99353.03;4938684;29;20031;-87
2022/01/05 06:41:24;;;;;;;52.47;47.13;;;;;;;1.83;90.90;99380.78;4943409;29;20016;-87
2022/01/05 06:43:50;;;;;;;55.67;47.77;;;;;;;1.53;91.05;99339.78;4921865;29;20039;-86
2022/01/05 06:46:21;;;;;;;53.03;47.47;;;;;;;1.34;90.22;99297.84;4934964;29;20027;-87
2022/01/05 06:48:46;;;;;;;53.17;47.65;;;;;;;1.83;89.63;99364.72;4934668;29;20449;-87
2022/01/05 06:51:12;;;;;;;51.73;46.63;;;;;;;1.56;89.96;99331.28;4935072;29;20031;-86
2022/01/05 06:53:37;;;;;;;54.73;47.30;;;;;;;1.84;89.82;99361.31;4935925;29;20038;-87
2022/01/05 06:56:03;;;;;;;52.83;47.60;;;;;;;1.76;89.86;99357.19;4932846;29;20019;-87
2022/01/05 06:58:28;;;;;;;51.72;46.75;;;;;;;1.87;89.12;99366.34;4931715;29;20050;-86
2022/01/05 07:00:55;;;;;;;51.00;46.03;;;;;;;1.73;88.94;99349.63;4931806;29;20050;-87
2022/01/05 07:03:20;;;;;;;53.03;47.65;;;;;;;1.83;89.13;99378.25;4933539;29;20031;-86
2022/01/05 07:05:46;;;;;;;50.17;45.60;;;;;;;1.84;88.86;99362.16;4940856;29;20030;-87
2022/01/05 07:08:11;;;;;;;54.73;47.90;;;;;;;1.94;88.74;99367.91;4932638;29;20038;-86
2022/01/05 07:10:37;;;;;;;53.10;47.53;;;;;;;1.99;88.20;99381.38;4933159;29;20030;-86
2022/01/05 07:13:02;;;;;;;52.77;47.20;;;;;;;1.98;87.31;99360.25;4938008;28;20034;-85
2022/01/05 07:15:28;;;;;;;53.43;47.63;;;;;;;1.90;87.47;99341.78;4936651;29;20019;-86
2022/01/05 07:17:53;;;;;;;53.60;47.87;;;;;;;2.02;88.08;99375.41;4939299;29;20031;-87
2022/01/05 07:20:18;;;;;;;52.30;46.87;;;;;;;2.09;87.92;99366.84;4938019;29;20050;-86
2022/01/05 07:22:44;;;;;;;53.30;47.87;;;;;;;2.12;86.12;99372.72;4940738;29;20054;-86
2022/01/05 07:25:09;;;;;;;53.33;47.80;;;;;;;2.11;87.29;99368.50;4941656;29;20027;-86
2022/01/05 07:27:36;;;;;;;54.53;48.50;;;;;;;2.15;86.72;99369.31;4940098;29;20030;-87
2022/01/05 07:30:02;;;;;;;53.45;47.97;;;;;;;1.89;87.53;99345.16;4940467;29;20349;-86
2022/01/05 07:32:28;;;;;;;54.00;47.22;;;;;;;2.13;87.88;99378.63;4956917;29;20035;-86
2022/01/05 07:34:54;;;;;;;;;;;;;;;1.98;89.00;99377.16;4944436;29;20023;-86
2022/01/05 07:37:19;;;;;;;51.08;45.70;;;;;;;1.98;89.13;99382.25;4944716;29;19921;-86
2022/01/05 07:39:44;;;;;;;52.90;47.17;;;;;;;-145.93;100.00;59239.47;4946597;28;20094;-86
2022/01/05 07:42:10;;;;;;;53.57;47.17;;;;;;;-145.93;100.00;59239.47;4948880;28;20022;-86
2022/01/05 07:44:36;;;;;;;51.43;46.30;;;;;;;-145.93;100.00;59239.47;4949376;28;20057;-86
2022/01/05 07:47:01;;;;;;;50.75;46.05;;;;;;;-145.93;100.00;59239.47;4948781;29;20092;-86
2022/01/05 07:49:26;;;;;;;51.43;46.43;;;;;;;-145.93;100.00;59239.47;4948731;29;20109;-86
2022/01/05 07:51:52;;;;;;;52.83;47.27;;;;;;;-145.93;100.00;59239.47;4948011;28;20027;-86
2022/01/05 07:54:18;;;;;;;57.17;47.90;;;;;;;-145.93;100.00;59239.47;4947643;29;20039;-86
2022/01/05 07:56:43;;;;;;;52.20;47.20;;;;;;;-145.93;100.00;59239.47;4938980;29;20389;-87
2022/01/05 07:59:09;;;;;;;53.10;47.77;;;;;;;-145.93;100.00;59239.47;4937871;29;20042;-87
2022/01/05 08:01:37;;;;;;;51.07;46.20;;;;;;;-145.93;100.00;59239.47;4934159;29;20038;-87
2022/01/05 08:04:08;;;;;;;54.10;47.60;;;;;;;-145.93;100.00;59239.47;4931165;29;20118;-86
2022/01/05 08:06:33;;;;;;;51.90;46.88;;;;;;;-145.93;100.00;59239.47;4933420;29;20031;-86
2022/01/05 08:09:00;;;;;;;52.73;47.30;;;;;;;-145.93;100.00;59239.47;4936162;29;20050;-86
2022/01/05 08:11:25;;;;;;;52.05;46.67;;;;;;;-145.93;100.00;59239.47;4939987;29;20031;-87
2022/01/05 08:13:53;;;;;;;53.10;47.50;;;;;;;-145.93;100.00;59239.47;4939740;29;20114;-86
2022/01/05 08:16:21;;;;;;;51.80;46.65;;;;;;;-145.93;100.00;59239.47;4941375;28;20023;-86
2022/01/05 08:18:47;;;;;;;51.95;46.92;;;;;;;-145.93;100.00;59239.47;4945611;29;20039;-86
2022/01/05 08:21:12;;;;;;;51.53;46.30;;;;;;;-145.93;100.00;59239.47;4940416;29;20076;-86
2022/01/05 08:23:38;;;;;;;53.03;46.80;;;;;;;-145.93;100.00;59239.47;4959041;28;20034;-86
2022/01/05 08:26:04;;;;;;;52.60;47.63;;;;;;;-145.93;100.00;59239.47;4949126;28;20047;-86
2022/01/05 08:28:30;;;;;;;;;;;;;;;-145.93;100.00;59239.47;4949183;28;20015;-86
2022/01/05 08:31:06;;;;;;;52.70;46.97;;;;;;;-145.93;100.00;59239.47;4948209;28;19906;-86
2022/01/05 08:33:34;;;;;;;52.40;47.08;;;;;;;-145.93;100.00;59239.47;4948905;28;20019;-86
2022/01/05 08:36:01;;;;;;;53.50;48.13;;;;;;;-145.93;100.00;59239.47;4948808;28;20054;-85
2022/01/05 08:38:35;;;;;;;52.15;46.90;;;;;;;-145.93;100.00;59239.47;4948326;28;20031;-86
2022/01/05 08:41:03;;;;;;;52.70;47.55;;;;;;;-145.93;100.00;59239.47;4948079;28;20035;-86
2022/01/05 08:43:29;;;;;;;55.67;48.50;;;;;;;-145.93;100.00;59239.47;4947578;28;20022;-85
2022/01/05 08:45:54;;;;;;;54.30;48.50;;;;;;;-145.93;100.00;59239.47;4947799;28;20019;-85
2022/01/05 08:48:20;;;;;;;56.33;48.37;;;;;;;-145.93;100.00;59239.47;4947202;29;20012;-84
2022/01/05 08:50:47;;;;;;;52.07;46.77;;;;;;;-145.93;100.00;59239.47;4947187;29;20074;-86
2022/01/05 08:53:12;;;;;;;56.13;48.05;;;;;;;-145.93;100.00;59239.47;4946408;29;20031;-87
2022/01/05 08:55:41;;;;;;;52.67;47.00;;;;;;;-145.93;100.00;59239.47;4945423;29;20031;-86
2022/01/05 08:58:10;;;;;;;51.60;46.60;;;;;;;-145.93;100.00;59239.47;4941230;29;20031;-87
2022/01/05 09:00:36;;;;;;;53.00;47.60;;;;;;;-145.93;100.00;59239.47;4939954;29;20025;-85
2022/01/05 09:03:02;;;;;;;54.60;48.55;;;;;;;-145.93;100.00;59239.47;4939455;29;20023;-85
2022/01/05 09:05:27;;;;;;;55.38;48.55;;;;;;;-145.93;100.00;59239.47;4934565;29;20054;-80
2022/01/05 09:07:53;;;;;;;58.90;49.93;;;;;;;-145.93;100.00;59239.47;4928752;29;20030;-78
2022/01/05 09:10:18;;;;;;;62.03;50.70;;;;;;;-145.93;100.00;59239.47;4928020;29;20023;-80
2022/01/05 09:12:44;;;;;;;82.00;53.23;;;;;;;-145.93;100.00;59239.47;4930365;28;20383;-87
2022/01/05 09:15:10;;;;;;;55.03;49.10;;;;;;;-145.93;100.00;59239.47;4933051;29;20637;-87
2022/01/05 09:17:35;;;;;;;57.70;49.50;;;;;;;-145.93;100.00;59239.47;4920539;29;20042;-85
2022/01/05 09:20:01;;;;;;;54.97;49.20;;;;;;;-145.93;100.00;59239.47;4924485;29;20032;-86
2022/01/05 09:22:26;;;;;;;56.57;50.53;;;;;;;-145.93;100.00;59239.47;4951320;28;20050;-85
2022/01/05 09:24:51;;;;;;;52.77;47.73;;;;;;;-145.93;100.00;59239.47;4952035;28;20038;-85
2022/01/05 09:27:19;;;;;;;55.70;48.50;;;;;;;-145.93;100.00;59239.47;4935844;29;20027;-86
2022/01/05 09:29:44;;;;;;;52.53;47.55;;;;;;;-145.93;100.00;59239.47;4943747;28;20034;-87
2022/01/05 09:32:11;;;;;;;56.80;49.67;;;;;;;-145.93;100.00;59239.47;4946464;28;20019;-87
2022/01/05 09:34:36;;;;;;;;;;;;;;;-145.93;100.00;59239.47;4942113;28;20076;-87
2022/01/05 09:42:41;;;;;;;52.08;47.35;;;;;;;-145.93;100.00;59239.47;4960269;29;20038;-86
2022/01/05 09:45:20;;;;;;;53.00;48.03;;;;;;;-145.93;100.00;59239.47;4935712;29;20127;-84
2022/01/05 09:47:57;;;;;;;55.45;49.50;;;;;;;-145.93;100.00;59239.47;4952036;29;20023;-85
2022/01/05 09:50:23;;;;;;;59.75;50.25;;;;;;;-145.93;100.00;59239.47;4933270;29;20027;-87
2022/01/05 09:52:49;;;;;;;56.42;50.30;;;;;;;-145.93;100.00;59239.47;4929936;29;20058;-86
2022/01/05 09:55:16;;;;;;;54.80;49.40;;;;;;;-145.93;100.00;59239.47;4933277;29;20026;-86
2022/01/05 09:57:43;;;;;;;55.08;49.40;;;;;;;-145.93;100.00;59239.47;4927126;29;20023;-86
2022/01/05 10:00:11;;;;;;;53.47;48.40;;;;;;;-145.93;100.00;59239.47;4940971;28;20456;-84
2022/01/05 10:02:36;;;;;;;56.17;50.33;;;;;;;-145.93;100.00;59239.47;4935168;29;20012;-87
2022/01/05 10:05:03;;;;;;;55.30;49.15;;;;;;;-145.93;100.00;59239.47;4935815;29;20031;-84
2022/01/05 10:07:28;;;;;;;;;;;;;;;-145.93;100.00;59239.47;4933888;29;20035;-85
2022/01/05 10:09:53;;;;;;;53.72;48.55;;;;;;;-145.93;100.00;59239.47;4925702;29;19919;-85
2022/01/05 10:12:20;;;;;;;54.17;48.90;;;;;;;-145.93;100.00;59239.47;4939333;29;20504;-84
2022/01/05 10:14:47;;;;;;;55.30;49.60;;;;;;;-145.93;100.00;59239.47;4936480;29;20053;-85
2022/01/05 10:17:22;;;;;;;54.55;49.28;;;;;;;-145.93;100.00;59239.47;4933642;29;20045;-85
2022/01/05 10:19:55;;;;;;;54.03;49.05;;;;;;;-145.93;100.00;59239.47;4969607;23;20046;-89
2022/01/05 10:22:45;;;;;;;56.97;49.65;;;;;;;-145.93;100.00;59239.47;4951174;28;20023;-84
2022/01/05 10:26:02;;;;;;;55.50;49.90;;;;;;;-145.93;100.00;59239.47;4945451;28;20131;-83
2022/01/05 10:28:30;;;;;;;55.15;49.85;;;;;;;-145.93;100.00;59239.47;4932024;29;20070;-88
2022/01/05 10:30:55;;;;;;;54.47;49.47;;;;;;;-145.93;100.00;59239.47;4950379;28;20028;-89
2022/01/05 10:33:28;;;;;;;56.33;50.50;;;;;;;-145.93;100.00;59239.47;4931781;29;20034;-90
2022/01/05 10:35:57;;;;;;;56.30;50.70;;;;;;;-145.93;100.00;59239.47;4931767;29;20099;-89
2022/01/05 10:38:33;;;;;;;54.33;49.28;;;;;;;-145.93;100.00;59239.47;4931701;29;20019;-90
2022/01/05 10:41:22;;;;;;;56.25;50.65;;;;;;;-145.93;100.00;59239.47;4931442;28;20027;-84
2022/01/05 10:44:11;;;;;;;55.28;49.38;;;;;;;-145.93;100.00;59239.47;4926873;29;20043;-87
2022/01/05 10:46:42;;;;;;;55.55;49.60;;;;;;;-145.93;100.00;59239.47;4920406;29;20027;-88
2022/01/05 10:49:08;;;;;;;56.20;50.20;;;;;;;-145.93;100.00;59239.47;4927853;29;20018;-89
2022/01/05 10:51:35;;;;;;;54.58;49.25;;;;;;;-145.93;100.00;59239.47;4947548;29;20067;-92
2022/01/05 10:54:18;;;;;;;55.85;50.05;;;;;;;-145.93;100.00;59239.47;4935881;28;20027;-89
2022/01/05 10:56:44;;;;;;;54.92;49.33;;;;;;;-145.93;100.00;59239.47;4947335;29;20031;-89
2022/01/05 10:59:35;;;;;;;55.58;49.92;;;;;;;-145.93;100.00;59239.47;4924440;29;20031;-90
2022/01/05 11:02:19;;;;;;;55.75;50.50;;;;;;;-145.93;100.00;59239.47;4935198;29;20028;-89
2022/01/05 11:04:44;;;;;;;56.00;49.85;;;;;;;-145.93;100.00;59239.47;4947870;28;20034;-87
2022/01/05 11:07:19;;;;;;;55.27;49.30;;;;;;;-145.93;100.00;59239.47;4929875;29;20023;-86
2022/01/05 11:09:55;;;;;;;56.28;50.08;;;;;;;-145.93;100.00;59239.47;4934610;29;20020;-87
2022/01/05 11:12:30;;;;;;;54.83;49.43;;;;;;;-145.93;100.00;59239.47;4926084;28;20023;-88
2022/01/05 11:15:28;;;;;;;55.13;49.53;;;;;;;-145.93;100.00;59239.47;4936112;29;20369;-87
2022/01/05 11:18:12;;;;;;;55.22;49.42;;;;;;;-145.93;100.00;59239.47;4956955;28;20087;-88
2022/01/05 11:20:52;;;;;;;58.10;50.58;;;;;;;-145.93;100.00;59239.47;4947314;28;20086;-86